createdAt,value
2022-11-23T00:00:33.767Z,839.48
2022-11-23T00:01:33.771Z,839.50
2022-11-23T00:02:33.823Z,839.49
2022-11-23T00:03:33.736Z,839.50
2022-11-23T00:04:33.730Z,839.51
2022-11-23T00:05:33.723Z,839.56
2022-11-23T00:06:33.817Z,839.50
2022-11-23T00:07:33.759Z,839.56
2022-11-23T00:08:33.684Z,839.59
2022-11-23T00:09:33.982Z,839.50
2022-11-23T00:10:33.663Z,839.52
2022-11-23T00:11:33.697Z,839.52
2022-11-23T00:12:33.644Z,839.54
2022-11-23T00:13:33.645Z,839.55
2022-11-23T00:14:33.623Z,839.57
2022-11-23T00:15:33.609Z,839.54
2022-11-23T00:16:33.600Z,839.55
2022-11-23T00:17:33.581Z,839.54
2022-11-23T00:18:33.577Z,839.54
2022-11-23T00:19:33.920Z,839.55
2022-11-23T00:20:33.553Z,839.54
2022-11-23T00:21:33.549Z,839.55
2022-11-23T00:22:33.555Z,839.55
2022-11-23T00:23:33.534Z,839.58
2022-11-23T00:24:33.596Z,839.55
2022-11-23T00:25:33.509Z,839.59
2022-11-23T00:26:33.498Z,839.55
2022-11-23T00:27:33.474Z,839.58
2022-11-23T00:28:33.470Z,839.58
2022-11-23T00:29:33.785Z,839.59
2022-11-23T00:30:33.447Z,839.57
2022-11-23T00:31:33.453Z,839.56
2022-11-23T00:32:33.470Z,839.58
2022-11-23T00:33:33.419Z,839.59
2022-11-23T00:34:33.401Z,839.59
2022-11-23T00:35:33.402Z,839.56
2022-11-23T00:36:33.388Z,839.53
2022-11-23T00:37:33.385Z,839.56
2022-11-23T00:38:33.398Z,839.54
2022-11-23T00:39:33.647Z,839.55
2022-11-23T00:40:33.336Z,839.59
2022-11-23T00:41:33.337Z,839.56
2022-11-23T00:42:37.815Z,839.56
2022-11-23T00:43:34.319Z,839.56
2022-11-23T00:44:33.296Z,839.48
2022-11-23T00:45:33.350Z,839.55
2022-11-23T00:46:33.278Z,839.53
2022-11-23T00:47:33.266Z,839.53
2022-11-23T00:48:33.262Z,839.52
2022-11-23T00:49:33.476Z,839.50
2022-11-23T00:50:33.246Z,839.52
2022-11-23T00:51:33.231Z,839.49
2022-11-23T00:52:33.219Z,839.50
2022-11-23T00:53:33.200Z,839.53
2022-11-23T00:54:40.759Z,839.51
2022-11-23T00:55:40.703Z,839.53
2022-11-23T00:56:40.713Z,839.52
2022-11-23T00:57:40.680Z,839.52
2022-11-23T00:58:40.683Z,839.54
2022-11-23T00:59:40.669Z,839.51
2022-11-23T01:00:41.670Z,839.54
2022-11-23T01:01:33.169Z,839.53
2022-11-23T01:02:33.111Z,839.53
2022-11-23T01:03:33.090Z,839.50
2022-11-23T01:04:33.083Z,839.56
2022-11-23T01:05:33.096Z,839.55
2022-11-23T01:06:33.066Z,839.56
2022-11-23T01:07:33.092Z,839.54
2022-11-23T01:08:33.050Z,839.57
2022-11-23T01:09:33.399Z,839.58
2022-11-23T01:10:33.046Z,839.59
2022-11-23T01:11:33.031Z,839.54
2022-11-23T01:12:33.000Z,839.59
2022-11-23T01:13:32.985Z,839.57
2022-11-23T01:14:33.054Z,839.57
2022-11-23T01:15:32.967Z,839.59
2022-11-23T01:16:32.967Z,839.63
2022-11-23T01:17:32.960Z,839.64
2022-11-23T01:18:32.936Z,839.65
2022-11-23T01:19:33.186Z,839.67
2022-11-23T01:20:32.960Z,839.67
2022-11-23T01:21:32.904Z,839.64
2022-11-23T01:22:32.892Z,839.66
2022-11-23T01:23:32.993Z,839.65
2022-11-23T01:24:32.871Z,839.69
2022-11-23T01:25:32.861Z,839.68
2022-11-23T01:26:32.875Z,839.67
2022-11-23T01:27:32.841Z,839.66
2022-11-23T01:28:32.835Z,839.69
2022-11-23T01:29:33.312Z,839.69
2022-11-23T01:30:32.814Z,839.68
2022-11-23T01:31:32.802Z,839.68
2022-11-23T01:32:32.790Z,839.71
2022-11-23T01:33:32.775Z,839.73
2022-11-23T01:34:32.783Z,839.72
2022-11-23T01:35:32.779Z,839.71
2022-11-23T01:36:32.740Z,839.71
2022-11-23T01:37:32.733Z,839.71
2022-11-23T01:38:32.723Z,839.70
2022-11-23T01:39:33.010Z,839.72
2022-11-23T01:40:32.699Z,839.70
2022-11-23T01:41:32.703Z,839.66
2022-11-23T01:42:32.701Z,839.65
2022-11-23T01:43:32.666Z,839.70
2022-11-23T01:44:32.656Z,839.65
2022-11-23T01:45:32.646Z,839.69
2022-11-23T01:46:32.636Z,839.69
2022-11-23T01:47:32.643Z,839.72
2022-11-23T01:48:32.612Z,839.68
2022-11-23T01:49:32.880Z,839.72
2022-11-23T01:50:32.593Z,839.70
2022-11-23T01:51:32.602Z,839.72
2022-11-23T01:52:32.589Z,839.71
2022-11-23T01:53:32.772Z,839.71
2022-11-23T01:54:32.549Z,839.71
2022-11-23T01:55:32.543Z,839.73
2022-11-23T01:56:32.539Z,839.66
2022-11-23T01:57:32.517Z,839.67
2022-11-23T01:58:32.560Z,839.68
2022-11-23T01:59:33.014Z,839.69
2022-11-23T02:00:32.485Z,839.72
2022-11-23T02:01:32.563Z,839.74
2022-11-23T02:02:32.466Z,839.71
2022-11-23T02:03:32.461Z,839.76
2022-11-23T02:04:32.462Z,839.81
2022-11-23T02:05:32.434Z,839.77
2022-11-23T02:06:32.422Z,839.78
2022-11-23T02:07:32.490Z,839.75
2022-11-23T02:08:32.403Z,839.77
2022-11-23T02:09:32.795Z,839.84
2022-11-23T02:10:32.407Z,839.85
2022-11-23T02:11:32.371Z,839.79
2022-11-23T02:12:32.363Z,839.80
2022-11-23T02:13:32.356Z,839.79
2022-11-23T02:14:32.368Z,839.82
2022-11-23T02:15:32.333Z,839.82
2022-11-23T02:16:32.333Z,839.79
2022-11-23T02:17:32.312Z,839.77
2022-11-23T02:18:32.297Z,839.75
2022-11-23T02:19:32.754Z,839.76
2022-11-23T02:20:32.284Z,839.77
2022-11-23T02:21:32.319Z,839.78
2022-11-23T02:22:32.267Z,839.76
2022-11-23T02:23:32.245Z,839.77
2022-11-23T02:24:32.244Z,839.75
2022-11-23T02:25:32.233Z,839.79
2022-11-23T02:26:32.214Z,839.84
2022-11-23T02:27:32.259Z,839.80
2022-11-23T02:28:32.195Z,839.85
2022-11-23T02:29:32.766Z,839.93
2022-11-23T02:30:32.221Z,839.92
2022-11-23T02:31:32.162Z,839.88
2022-11-23T02:32:32.186Z,839.85
2022-11-23T02:33:32.139Z,839.91
2022-11-23T02:34:32.126Z,839.92
2022-11-23T02:35:32.163Z,839.86
2022-11-23T02:36:32.209Z,839.86
2022-11-23T02:37:32.098Z,839.93
2022-11-23T02:38:32.092Z,839.86
2022-11-23T02:39:32.503Z,839.84
2022-11-23T02:40:32.077Z,839.82
2022-11-23T02:41:32.068Z,839.78
2022-11-23T02:42:32.063Z,839.81
2022-11-23T02:43:32.138Z,839.80
2022-11-23T02:44:32.028Z,839.86
2022-11-23T02:45:32.012Z,839.81
2022-11-23T02:46:32.029Z,839.78
2022-11-23T02:47:32.001Z,839.78
2022-11-23T02:48:31.979Z,839.78
2022-11-23T02:49:32.248Z,839.78
2022-11-23T02:50:31.965Z,839.78
2022-11-23T02:51:31.969Z,839.82
2022-11-23T02:52:31.954Z,839.85
2022-11-23T02:53:31.932Z,839.88
2022-11-23T02:54:31.937Z,839.86
2022-11-23T02:55:31.907Z,839.88
2022-11-23T02:56:31.897Z,839.93
2022-11-23T02:57:31.887Z,839.91
2022-11-23T02:58:31.894Z,839.96
2022-11-23T02:59:32.206Z,839.92
2022-11-23T03:00:31.964Z,839.92
2022-11-23T03:01:31.860Z,839.92
2022-11-23T03:02:31.856Z,839.90
2022-11-23T03:03:31.826Z,839.92
2022-11-23T03:04:31.829Z,839.92
2022-11-23T03:05:31.799Z,839.91
2022-11-23T03:06:31.801Z,839.95
2022-11-23T03:07:31.865Z,839.98
2022-11-23T03:08:31.775Z,839.93
2022-11-23T03:09:32.088Z,839.93
2022-11-23T03:10:31.756Z,839.96
2022-11-23T03:11:31.746Z,840.00
2022-11-23T03:12:31.782Z,839.97
2022-11-23T03:13:31.723Z,839.99
2022-11-23T03:14:31.707Z,840.01
2022-11-23T03:15:31.706Z,839.95
2022-11-23T03:16:31.686Z,839.94
2022-11-23T03:17:31.675Z,839.96
2022-11-23T03:18:31.705Z,840.02
2022-11-23T03:19:32.028Z,840.00
2022-11-23T03:20:31.657Z,840.00
2022-11-23T03:21:31.634Z,840.05
2022-11-23T03:22:31.624Z,840.07
2022-11-23T03:23:31.617Z,840.08
2022-11-23T03:24:31.602Z,840.11
2022-11-23T03:25:31.605Z,840.06
2022-11-23T03:26:31.581Z,840.06
2022-11-23T03:27:31.574Z,840.04
2022-11-23T03:28:31.558Z,840.09
2022-11-23T03:29:31.837Z,840.06
2022-11-23T03:30:31.653Z,840.06
2022-11-23T03:31:31.736Z,840.05
2022-11-23T03:32:31.521Z,840.07
2022-11-23T03:33:31.507Z,840.03
2022-11-23T03:34:31.521Z,840.07
2022-11-23T03:35:31.480Z,840.04
2022-11-23T03:36:31.494Z,840.08
2022-11-23T03:37:31.471Z,840.08
2022-11-23T03:38:31.447Z,840.06
2022-11-23T03:39:31.673Z,840.02
2022-11-23T03:40:31.431Z,840.06
2022-11-23T03:41:31.416Z,840.06
2022-11-23T03:42:31.461Z,840.03
2022-11-23T03:43:31.415Z,839.98
2022-11-23T03:44:31.391Z,839.95
2022-11-23T03:45:31.395Z,839.98
2022-11-23T03:46:31.367Z,839.93
2022-11-23T03:47:31.355Z,839.95
2022-11-23T03:48:31.352Z,839.93
2022-11-23T03:49:31.632Z,839.91
2022-11-23T03:50:31.352Z,839.87
2022-11-23T03:51:31.325Z,839.86
2022-11-23T03:52:31.314Z,839.89
2022-11-23T03:53:31.288Z,839.84
2022-11-23T03:54:31.334Z,839.85
2022-11-23T03:55:31.270Z,839.87
2022-11-23T03:56:31.261Z,839.90
2022-11-23T03:57:31.251Z,839.86
2022-11-23T03:58:31.250Z,839.87
2022-11-23T03:59:31.764Z,839.87
2022-11-23T04:00:31.214Z,839.84
2022-11-23T04:01:31.274Z,839.83
2022-11-23T04:02:31.191Z,839.84
2022-11-23T04:03:31.196Z,839.81
2022-11-23T04:04:31.176Z,839.81
2022-11-23T04:05:31.165Z,839.82
2022-11-23T04:06:31.175Z,839.85
2022-11-23T04:07:31.160Z,839.84
2022-11-23T04:08:31.129Z,839.80
2022-11-23T04:09:31.420Z,839.84
2022-11-23T04:10:31.123Z,839.81
2022-11-23T04:11:31.105Z,839.84
2022-11-23T04:12:31.090Z,839.77
2022-11-23T04:13:31.082Z,839.77
2022-11-23T04:14:31.064Z,839.79
2022-11-23T04:15:31.069Z,839.78
2022-11-23T04:16:31.049Z,839.78
2022-11-23T04:17:31.036Z,839.82
2022-11-23T04:18:31.025Z,839.77
2022-11-23T04:19:31.377Z,839.81
2022-11-23T04:20:31.004Z,839.77
2022-11-23T04:21:31.007Z,839.79
2022-11-23T04:22:31.006Z,839.76
2022-11-23T04:23:31.023Z,839.76
2022-11-23T04:24:30.975Z,839.75
2022-11-23T04:25:30.952Z,839.82
2022-11-23T04:26:30.952Z,839.80
2022-11-23T04:27:30.928Z,839.75
2022-11-23T04:28:30.937Z,839.80
2022-11-23T04:29:31.185Z,839.83
2022-11-23T04:30:30.983Z,839.80
2022-11-23T04:31:30.894Z,839.84
2022-11-23T04:32:30.890Z,839.87
2022-11-23T04:33:30.870Z,839.87
2022-11-23T04:34:30.862Z,839.88
2022-11-23T04:35:30.849Z,839.85
2022-11-23T04:36:30.850Z,839.82
2022-11-23T04:37:30.947Z,839.83
2022-11-23T04:38:30.840Z,839.83
2022-11-23T04:39:31.096Z,839.81
2022-11-23T04:40:30.796Z,839.77
2022-11-23T04:41:30.784Z,839.78
2022-11-23T04:42:30.774Z,839.81
2022-11-23T04:43:30.774Z,839.74
2022-11-23T04:44:30.755Z,839.80
2022-11-23T04:45:30.740Z,839.78
2022-11-23T04:46:30.747Z,839.77
2022-11-23T04:47:30.722Z,839.78
2022-11-23T04:48:30.722Z,839.81
2022-11-23T04:49:31.014Z,839.75
2022-11-23T04:50:30.687Z,839.74
2022-11-23T04:51:30.680Z,839.76
2022-11-23T04:52:30.682Z,839.72
2022-11-23T04:53:30.656Z,839.73
2022-11-23T04:54:30.675Z,839.69
2022-11-23T04:55:30.633Z,839.69
2022-11-23T04:56:30.628Z,839.69
2022-11-23T04:57:30.681Z,839.68
2022-11-23T04:58:34.634Z,839.69
2022-11-23T04:59:31.001Z,839.65
2022-11-23T05:00:30.581Z,839.72
2022-11-23T05:01:30.617Z,839.64
2022-11-23T05:02:30.558Z,839.65
2022-11-23T05:03:30.566Z,839.67
2022-11-23T05:04:30.541Z,839.65
2022-11-23T05:05:30.540Z,839.55
2022-11-23T05:06:30.520Z,839.57
2022-11-23T05:07:30.545Z,839.50
2022-11-23T05:08:30.496Z,839.50
2022-11-23T05:09:30.955Z,839.51
2022-11-23T05:10:30.614Z,839.47
2022-11-23T05:11:30.558Z,839.48
2022-11-23T05:12:30.456Z,839.42
2022-11-23T05:13:30.454Z,839.41
2022-11-23T05:14:30.435Z,839.43
2022-11-23T05:15:30.420Z,839.42
2022-11-23T05:16:30.407Z,839.35
2022-11-23T05:17:30.401Z,839.40
2022-11-23T05:18:30.389Z,839.38
2022-11-23T05:19:30.889Z,839.37
2022-11-23T05:20:30.368Z,839.41
2022-11-23T05:21:30.364Z,839.42
2022-11-23T05:22:30.360Z,839.40
2022-11-23T05:23:30.392Z,839.35
2022-11-23T05:24:30.337Z,839.37
2022-11-23T05:25:30.314Z,839.34
2022-11-23T05:26:30.330Z,839.35
2022-11-23T05:27:30.341Z,839.30
2022-11-23T05:28:40.292Z,839.29
2022-11-23T05:29:31.537Z,839.29
2022-11-23T05:30:30.267Z,839.30
2022-11-23T05:31:30.252Z,839.33
2022-11-23T05:32:30.238Z,839.29
2022-11-23T05:33:30.225Z,839.32
2022-11-23T05:34:30.216Z,839.30
2022-11-23T05:35:30.210Z,839.32
2022-11-23T05:36:30.301Z,839.32
2022-11-23T05:37:30.216Z,839.36
2022-11-23T05:38:30.175Z,839.33
2022-11-23T05:39:30.767Z,839.34
2022-11-23T05:40:30.151Z,839.32
2022-11-23T05:41:30.140Z,839.33
2022-11-23T05:42:30.171Z,839.35
2022-11-23T05:43:30.119Z,839.31
2022-11-23T05:44:30.109Z,839.30
2022-11-23T05:45:30.098Z,839.29
2022-11-23T05:46:30.090Z,839.28
2022-11-23T05:47:30.079Z,839.28
2022-11-23T05:48:30.080Z,839.28
2022-11-23T05:49:30.522Z,839.32
2022-11-23T05:50:30.104Z,839.28
2022-11-23T05:51:30.034Z,839.28
2022-11-23T05:52:30.026Z,839.25
2022-11-23T05:53:30.991Z,839.20
2022-11-23T05:54:30.007Z,839.24
2022-11-23T05:55:29.999Z,839.25
2022-11-23T05:56:29.988Z,839.28
2022-11-23T05:57:29.973Z,839.26
2022-11-23T05:58:29.983Z,839.28
2022-11-23T05:59:30.440Z,839.26
2022-11-23T06:00:30.090Z,839.25
2022-11-23T06:01:30.944Z,839.29
2022-11-23T06:02:29.924Z,839.29
2022-11-23T06:03:29.909Z,839.27
2022-11-23T06:04:29.913Z,839.31
2022-11-23T06:05:29.889Z,839.30
2022-11-23T06:06:29.874Z,839.31
2022-11-23T06:07:29.911Z,839.37
2022-11-23T06:08:29.869Z,839.34
2022-11-23T06:09:30.349Z,839.40
2022-11-23T06:10:29.832Z,839.42
2022-11-23T06:11:29.823Z,839.42
2022-11-23T06:12:29.809Z,839.45
2022-11-23T06:13:29.799Z,839.46
2022-11-23T06:14:29.828Z,839.51
2022-11-23T06:15:29.776Z,839.47
2022-11-23T06:16:29.768Z,839.53
2022-11-23T06:17:29.755Z,839.55
2022-11-23T06:18:29.751Z,839.49
2022-11-23T06:19:30.357Z,839.48
2022-11-23T06:20:29.725Z,839.47
2022-11-23T06:21:29.716Z,839.47
2022-11-23T06:22:29.718Z,839.48
2022-11-23T06:23:29.707Z,839.53
2022-11-23T06:24:29.763Z,839.54
2022-11-23T06:25:29.684Z,839.55
2022-11-23T06:26:29.661Z,839.57
2022-11-23T06:27:29.658Z,839.55
2022-11-23T06:28:29.642Z,839.53
2022-11-23T06:29:30.010Z,839.59
2022-11-23T06:30:29.794Z,839.56
2022-11-23T06:31:29.611Z,839.56
2022-11-23T06:32:29.598Z,839.57
2022-11-23T06:33:29.596Z,839.56
2022-11-23T06:34:29.580Z,839.57
2022-11-23T06:35:29.565Z,839.51
2022-11-23T06:36:29.556Z,839.55
2022-11-23T06:37:29.546Z,839.56
2022-11-23T06:38:29.548Z,839.55
2022-11-23T06:39:30.047Z,839.57
2022-11-23T06:40:29.528Z,839.58
2022-11-23T06:41:32.425Z,839.57
2022-11-23T06:42:44.876Z,839.60
2022-11-23T06:43:30.492Z,839.62
2022-11-23T06:44:29.470Z,839.65
2022-11-23T06:45:29.458Z,839.70
2022-11-23T06:46:29.487Z,839.69
2022-11-23T06:47:29.452Z,839.76
2022-11-23T06:48:29.426Z,839.78
2022-11-23T06:49:29.703Z,839.77
2022-11-23T06:50:29.416Z,839.83
2022-11-23T06:51:29.397Z,839.87
2022-11-23T06:52:29.410Z,839.87
2022-11-23T06:53:29.492Z,839.87
2022-11-23T06:54:29.415Z,839.85
2022-11-23T06:55:29.352Z,839.89
2022-11-23T06:56:29.341Z,839.93
2022-11-23T06:57:29.330Z,839.99
2022-11-23T06:58:29.327Z,839.99
2022-11-23T06:59:29.650Z,840.02
2022-11-23T07:00:29.380Z,840.02
2022-11-23T07:01:29.359Z,840.05
2022-11-23T07:02:29.409Z,840.08
2022-11-23T07:03:29.315Z,840.09
2022-11-23T07:04:29.255Z,840.09
2022-11-23T07:05:29.245Z,840.13
2022-11-23T07:06:29.312Z,840.14
2022-11-23T07:07:29.295Z,840.15
2022-11-23T07:08:29.221Z,840.18
2022-11-23T07:09:29.431Z,840.18
2022-11-23T07:10:29.384Z,840.18
2022-11-23T07:11:29.191Z,840.24
2022-11-23T07:12:29.179Z,840.26
2022-11-23T07:13:29.187Z,840.26
2022-11-23T07:14:29.151Z,840.24
2022-11-23T07:15:29.142Z,840.28
2022-11-23T07:16:29.140Z,840.27
2022-11-23T07:17:29.118Z,840.23
2022-11-23T07:18:29.143Z,840.31
2022-11-23T07:19:29.208Z,840.31
2022-11-23T07:20:29.090Z,840.27
2022-11-23T07:21:29.076Z,840.28
2022-11-23T07:22:29.073Z,840.31
2022-11-23T07:23:29.056Z,840.32
2022-11-23T07:24:32.867Z,840.32
2022-11-23T07:25:30.035Z,840.35
2022-11-23T07:26:29.022Z,840.36
2022-11-23T07:27:29.022Z,840.44
2022-11-23T07:28:28.998Z,840.42
2022-11-23T07:29:29.194Z,840.43
2022-11-23T07:30:29.628Z,840.44
2022-11-23T07:31:28.972Z,840.52
2022-11-23T07:32:28.958Z,840.49
2022-11-23T07:33:28.964Z,840.46
2022-11-23T07:34:28.965Z,840.49
2022-11-23T07:35:28.923Z,840.52
2022-11-23T07:36:28.920Z,840.50
2022-11-23T07:37:28.918Z,840.53
2022-11-23T07:38:28.908Z,840.54
2022-11-23T07:39:55.254Z,840.51
2022-11-23T07:40:29.872Z,840.51
2022-11-23T07:41:28.861Z,840.50
2022-11-23T07:42:35.494Z,840.52
2022-11-23T07:43:29.843Z,840.55
2022-11-23T07:44:28.846Z,840.54
2022-11-23T07:45:28.817Z,840.57
2022-11-23T07:46:28.818Z,840.57
2022-11-23T07:47:28.856Z,840.61
2022-11-23T07:48:31.923Z,840.57
2022-11-23T07:50:40.151Z,840.61
2022-11-23T07:51:47.647Z,840.61
2022-11-23T07:52:47.613Z,840.58
2022-11-23T07:53:47.600Z,840.61
2022-11-23T07:54:47.591Z,840.58
2022-11-23T07:55:40.065Z,840.59
2022-11-23T07:56:47.595Z,840.59
2022-11-23T07:57:40.048Z,840.59
2022-11-23T07:58:40.047Z,840.59
2022-11-23T07:59:40.021Z,840.65
2022-11-23T08:00:40.012Z,840.64
2022-11-23T08:01:40.108Z,840.60
2022-11-23T08:02:52.781Z,840.62
2022-11-23T08:03:41.032Z,840.64
2022-11-23T08:04:40.024Z,840.64
2022-11-23T08:05:39.953Z,840.68
2022-11-23T08:06:39.970Z,840.75
2022-11-23T08:07:39.992Z,840.66
2022-11-23T08:08:39.928Z,840.71
2022-11-23T08:09:39.966Z,840.72
2022-11-23T08:10:44.414Z,840.74
2022-11-23T08:11:40.892Z,840.75
2022-11-23T08:12:39.882Z,840.79
2022-11-23T08:13:39.885Z,840.73
2022-11-23T08:14:39.858Z,840.78
2022-11-23T08:15:39.854Z,840.78
2022-11-23T08:16:39.843Z,840.76
2022-11-23T08:17:39.830Z,840.75
2022-11-23T08:18:39.823Z,840.79
2022-11-23T08:19:39.822Z,840.75
2022-11-23T08:20:39.795Z,840.79
2022-11-23T08:21:39.786Z,840.80
2022-11-23T08:22:39.811Z,840.76
2022-11-23T08:23:39.764Z,840.73
2022-11-23T08:24:39.769Z,840.75
2022-11-23T08:25:39.744Z,840.73
2022-11-23T08:26:39.793Z,840.72
2022-11-23T08:27:39.721Z,840.68
2022-11-23T08:28:39.712Z,840.68
2022-11-23T08:29:39.790Z,840.68
2022-11-23T08:30:39.706Z,840.69
2022-11-23T08:31:39.695Z,840.72
2022-11-23T08:32:39.667Z,840.72
2022-11-23T08:33:39.655Z,840.70
2022-11-23T08:34:39.711Z,840.72
2022-11-23T08:35:39.640Z,840.72
2022-11-23T08:36:39.639Z,840.73
2022-11-23T08:37:39.629Z,840.74
2022-11-23T08:38:39.630Z,840.72
2022-11-23T08:39:39.602Z,840.73
2022-11-23T08:40:39.644Z,840.73
2022-11-23T08:41:39.681Z,840.70
2022-11-23T08:42:39.563Z,840.66
2022-11-23T08:43:39.554Z,840.68
2022-11-23T08:44:39.544Z,840.70
2022-11-23T08:45:39.532Z,840.69
2022-11-23T08:46:39.584Z,840.70
2022-11-23T08:47:39.524Z,840.72
2022-11-23T08:48:39.501Z,840.74
2022-11-23T08:49:39.487Z,840.69
2022-11-23T08:50:39.486Z,840.69
2022-11-23T08:51:39.537Z,840.68
2022-11-23T08:52:39.506Z,840.69
2022-11-23T08:53:39.461Z,840.70
2022-11-23T08:54:39.459Z,840.69
2022-11-23T08:55:39.428Z,840.63
2022-11-23T08:56:39.418Z,840.66
2022-11-23T08:57:39.404Z,840.63
2022-11-23T08:58:39.464Z,840.65
2022-11-23T08:59:39.398Z,840.61
2022-11-23T09:00:39.440Z,840.63
2022-11-23T09:01:39.556Z,840.60
2022-11-23T09:02:39.351Z,840.60
2022-11-23T09:03:39.341Z,840.57
2022-11-23T09:04:39.389Z,840.59
2022-11-23T09:05:39.334Z,840.58
2022-11-23T09:06:39.307Z,840.61
2022-11-23T09:07:39.359Z,840.57
2022-11-23T09:08:39.289Z,840.51
2022-11-23T09:09:39.277Z,840.53
2022-11-23T09:10:39.359Z,840.55
2022-11-23T09:11:39.273Z,840.56
2022-11-23T09:12:39.250Z,840.50
2022-11-23T09:13:39.236Z,840.48
2022-11-23T09:14:39.225Z,840.52
2022-11-23T09:15:39.224Z,840.51
2022-11-23T09:16:39.297Z,840.52
2022-11-23T09:17:39.186Z,840.51
2022-11-23T09:18:39.178Z,840.49
2022-11-23T09:19:39.170Z,840.46
2022-11-23T09:20:39.161Z,840.45
2022-11-23T09:21:39.162Z,840.42
2022-11-23T09:22:39.195Z,840.41
2022-11-23T09:23:39.144Z,840.41
2022-11-23T09:24:39.169Z,840.39
2022-11-23T09:25:39.110Z,840.38
2022-11-23T09:26:39.121Z,840.32
2022-11-23T09:27:39.099Z,840.35
2022-11-23T09:28:44.341Z,840.35
2022-11-23T09:29:40.064Z,840.32
2022-11-23T09:30:39.054Z,840.32
2022-11-23T09:31:39.043Z,840.34
2022-11-23T09:32:39.056Z,840.38
2022-11-23T09:33:39.021Z,840.39
2022-11-23T09:34:39.072Z,840.46
2022-11-23T09:35:43.610Z,840.44
2022-11-23T09:36:39.989Z,840.45
2022-11-23T09:37:38.982Z,840.46
2022-11-23T09:38:55.501Z,840.46
2022-11-23T09:39:39.956Z,840.45
2022-11-23T09:40:38.974Z,840.44
2022-11-23T09:41:38.949Z,840.37
2022-11-23T09:42:38.951Z,840.37
2022-11-23T09:43:38.912Z,840.39
2022-11-23T09:44:38.900Z,840.38
2022-11-23T09:45:38.895Z,840.41
2022-11-23T09:46:38.897Z,840.40
2022-11-23T09:47:38.885Z,840.42
2022-11-23T09:48:38.875Z,840.39
2022-11-23T09:49:38.854Z,840.39
2022-11-23T09:50:38.840Z,840.42
2022-11-23T09:51:38.841Z,840.46
2022-11-23T09:52:38.859Z,840.42
2022-11-23T09:53:38.806Z,840.39
2022-11-23T09:54:38.798Z,840.40
2022-11-23T09:55:38.784Z,840.44
2022-11-23T09:56:38.791Z,840.41
2022-11-23T09:57:38.786Z,840.39
2022-11-23T09:58:38.820Z,840.47
2022-11-23T09:59:38.747Z,840.42
2022-11-23T10:00:38.728Z,840.45
2022-11-23T10:01:38.784Z,840.42
2022-11-23T10:02:38.723Z,840.49
2022-11-23T10:03:41.518Z,840.51
2022-11-23T10:04:39.695Z,840.45
2022-11-23T10:05:38.683Z,840.49
2022-11-23T10:06:38.667Z,840.48
2022-11-23T10:07:38.701Z,840.41
2022-11-23T10:08:38.654Z,840.40
2022-11-23T10:09:38.637Z,840.37
2022-11-23T10:10:38.662Z,840.34
2022-11-23T10:11:38.613Z,840.33
2022-11-23T10:12:40.176Z,840.37
2022-11-23T10:13:38.595Z,840.31
2022-11-23T10:14:38.610Z,840.34
2022-11-23T10:15:38.571Z,840.31
2022-11-23T10:16:38.637Z,840.32
2022-11-23T10:17:38.549Z,840.33
2022-11-23T10:18:38.541Z,840.29
2022-11-23T10:19:38.528Z,840.26
2022-11-23T10:20:38.521Z,840.25
2022-11-23T10:21:38.520Z,840.23
2022-11-23T10:22:38.762Z,840.22
2022-11-23T10:23:38.487Z,840.25
2022-11-23T10:24:38.477Z,840.21
2022-11-23T10:25:39.407Z,840.17
2022-11-23T10:26:38.458Z,840.21
2022-11-23T10:27:38.446Z,840.21
2022-11-23T10:28:38.496Z,840.24
2022-11-23T10:29:38.420Z,840.15
2022-11-23T10:30:38.530Z,840.19
2022-11-23T10:31:38.417Z,840.22
2022-11-23T10:32:38.387Z,840.20
2022-11-23T10:33:38.379Z,840.20
2022-11-23T10:34:38.408Z,840.15
2022-11-23T10:35:38.374Z,840.16
2022-11-23T10:36:38.356Z,840.18
2022-11-23T10:37:38.332Z,840.17
2022-11-23T10:38:38.324Z,840.22
2022-11-23T10:39:38.320Z,840.17
2022-11-23T10:40:38.383Z,840.18
2022-11-23T10:41:38.308Z,840.18
2022-11-23T10:42:38.284Z,840.22
2022-11-23T10:43:38.269Z,840.21
2022-11-23T10:44:38.259Z,840.19
2022-11-23T10:45:38.252Z,840.21
2022-11-23T10:46:38.320Z,840.21
2022-11-23T10:47:38.224Z,840.22
2022-11-23T10:48:38.214Z,840.22
2022-11-23T10:49:38.205Z,840.23
2022-11-23T10:50:38.202Z,840.20
2022-11-23T10:51:38.188Z,840.21
2022-11-23T10:52:38.279Z,840.17
2022-11-23T10:53:38.168Z,840.20
2022-11-23T10:54:38.156Z,840.17
2022-11-23T10:55:39.158Z,840.19
2022-11-23T10:56:38.135Z,840.19
2022-11-23T10:57:38.118Z,840.17
2022-11-23T10:58:38.124Z,840.16
2022-11-23T10:59:38.112Z,840.18
2022-11-23T11:00:38.095Z,840.17
2022-11-23T11:01:38.140Z,840.16
2022-11-23T11:02:38.104Z,840.21
2022-11-23T11:03:38.072Z,840.19
2022-11-23T11:04:38.058Z,840.21
2022-11-23T11:06:09.669Z,840.20
2022-11-23T11:06:39.026Z,840.25
2022-11-23T11:07:38.245Z,840.24
2022-11-23T11:08:38.016Z,840.22
2022-11-23T11:09:37.994Z,840.22
2022-11-23T11:10:38.036Z,840.22
2022-11-23T11:11:37.981Z,840.29
2022-11-23T11:12:37.963Z,840.27
2022-11-23T11:13:37.952Z,840.28
2022-11-23T11:14:43.362Z,840.25
2022-11-23T11:15:47.540Z,840.25
2022-11-23T11:16:38.995Z,840.25
2022-11-23T12:23:55.498Z,840.03
2022-11-23T12:24:55.466Z,840.09
2022-11-23T12:25:55.451Z,840.03
2022-11-23T12:26:55.445Z,840.05
2022-11-23T12:27:55.436Z,840.08
2022-11-23T12:28:55.423Z,840.02
2022-11-23T12:29:55.424Z,840.04
2022-11-23T12:30:55.399Z,840.04
2022-11-23T12:31:55.394Z,840.04
2022-11-23T12:32:55.384Z,840.00
2022-11-23T12:33:55.481Z,840.03
2022-11-23T12:34:55.365Z,840.06
2022-11-23T12:35:55.352Z,840.09
2022-11-23T12:36:55.339Z,840.03
2022-11-23T12:37:55.325Z,840.06
2022-11-23T12:38:55.335Z,840.05
2022-11-23T12:39:55.335Z,840.07
2022-11-23T12:40:55.296Z,840.09
2022-11-23T12:41:55.286Z,840.06
2022-11-23T12:42:55.267Z,840.06
2022-11-23T12:43:55.260Z,840.07
2022-11-23T12:44:55.265Z,840.05
2022-11-23T12:45:55.246Z,840.07
2022-11-23T12:46:55.232Z,840.06
2022-11-23T12:47:55.215Z,840.05
2022-11-23T12:48:55.207Z,840.03
2022-11-23T12:49:55.203Z,840.06
2022-11-23T12:50:55.203Z,840.00
2022-11-23T12:51:55.176Z,840.05
2022-11-23T12:52:55.158Z,839.99
2022-11-23T12:53:55.189Z,840.00
2022-11-23T12:54:55.148Z,839.95
2022-11-23T12:55:55.185Z,839.99
2022-11-23T12:56:55.127Z,839.97
2022-11-23T12:57:55.195Z,839.99
2022-11-23T12:58:55.100Z,840.02
2022-11-23T12:59:55.103Z,839.97
2022-11-23T13:00:55.158Z,839.98
2022-11-23T13:01:55.095Z,839.93
2022-11-23T13:02:55.075Z,839.96
2022-11-23T13:03:55.051Z,839.97
2022-11-23T13:04:55.141Z,839.99
2022-11-23T13:05:55.024Z,839.97
2022-11-23T13:07:20.673Z,839.97
2022-11-23T13:07:56.012Z,840.01
2022-11-23T13:08:54.989Z,839.97
2022-11-23T13:09:54.989Z,839.96
2022-11-23T13:10:54.974Z,840.00
2022-11-23T13:11:54.983Z,839.96
2022-11-23T13:12:54.947Z,839.98
2022-11-23T13:13:54.936Z,839.97
2022-11-23T13:14:54.937Z,839.97
2022-11-23T13:15:55.051Z,839.97
2022-11-23T13:16:55.110Z,839.96
2022-11-23T13:17:54.894Z,839.97
2022-11-23T13:18:56.867Z,840.00
2022-11-23T13:19:55.885Z,839.97
2022-11-23T13:20:54.875Z,839.98
2022-11-23T13:21:54.849Z,840.01
2022-11-23T13:22:54.840Z,839.99
2022-11-23T13:23:54.838Z,840.01
2022-11-23T13:24:54.818Z,840.00
2022-11-23T13:25:54.806Z,839.99
2022-11-23T13:26:54.800Z,839.95
2022-11-23T13:27:54.805Z,839.96
2022-11-23T13:28:54.785Z,840.00
2022-11-23T13:29:54.771Z,839.99
2022-11-23T13:31:55.785Z,840.00
2022-11-23T13:32:54.724Z,840.03
2022-11-23T13:33:54.719Z,840.01
2022-11-23T13:34:54.725Z,839.99
2022-11-23T13:35:54.696Z,839.99
2022-11-23T13:37:12.076Z,840.00